Time;durP1;ratioP1;P1;durP2;ratioP2;P2;SDS_P1;SDS_P2;PMS_P1;PMS_P2;Temp;Humidity;BMP_temperature;BMP_pressure;BME280_temperature;BME280_humidity;BME280_pressure;Samples;Min_cycle;Max_cycle;Signal;HPM_P1;HPM_P2
2022/03/09 00:01:27;;;;;;;0.20;0.10;;;;;;;-2.16;78.82;100950.78;5015722;28;20502;-49
2022/03/09 00:03:54;;;;;;;0.20;0.10;;;;;;;-1.91;78.13;100944.66;5004751;28;20449;-49
2022/03/09 00:06:22;;;;;;;1.90;1.80;;;;;;;-1.88;78.03;100947.34;5013380;28;20451;-49
2022/03/09 00:08:49;;;;;;;0.20;0.10;;;;;;;-2.10;78.10;100944.88;5004262;28;20800;-48
2022/03/09 00:11:16;;;;;;;0.20;0.10;;;;;;;-2.21;78.67;100947.13;5008665;28;20485;-49
2022/03/09 00:13:42;;;;;;;0.20;0.10;;;;;;;-2.35;79.24;100948.38;5007150;28;20506;-48
2022/03/09 00:16:09;;;;;;;0.20;0.10;;;;;;;-2.28;79.48;100944.28;5015206;28;20511;-49
2022/03/09 00:18:37;;;;;;;0.20;0.10;;;;;;;-1.93;78.23;100948.91;5015032;28;20453;-49
2022/03/09 00:21:03;;;;;;;0.20;0.10;;;;;;;-1.84;78.67;100954.44;5001943;28;20496;-49
2022/03/09 00:23:31;;;;;;;0.20;0.10;;;;;;;-1.58;78.03;100954.38;5014975;28;20488;-49
2022/03/09 00:25:57;;;;;;;0.20;0.10;;;;;;;-1.42;77.08;100958.31;5010136;28;20873;-49
2022/03/09 00:28:24;;;;;;;0.20;0.10;;;;;;;-1.04;76.83;100952.53;5007093;28;20824;-48
2022/03/09 00:30:51;;;;;;;0.20;0.10;;;;;;;-1.11;75.59;100955.78;5014689;28;20974;-49
2022/03/09 00:33:17;;;;;;;0.40;0.40;;;;;;;-1.47;77.00;100952.97;5003225;28;20512;-49
2022/03/09 00:35:44;;;;;;;0.20;0.10;;;;;;;-1.72;77.29;100953.94;5018877;28;20448;-49
2022/03/09 00:38:11;;;;;;;0.20;0.10;;;;;;;-1.84;78.12;100958.75;5022256;28;20480;-49
2022/03/09 00:40:38;;;;;;;0.30;0.20;;;;;;;-1.88;78.12;100960.38;5001345;28;21048;-49
2022/03/09 00:43:05;;;;;;;0.20;0.20;;;;;;;-2.05;78.59;100964.16;5014729;28;20500;-49
2022/03/09 00:45:34;;;;;;;0.20;0.10;;;;;;;-2.20;78.98;100968.84;5001410;28;20538;-49
2022/03/09 00:48:01;;;;;;;0.20;0.10;;;;;;;-1.98;78.83;100970.44;5019131;28;20476;-48
2022/03/09 00:50:28;;;;;;;0.20;0.20;;;;;;;-2.26;79.05;100964.31;5020917;28;20466;-48
2022/03/09 00:52:54;;;;;;;0.20;0.10;;;;;;;-2.15;78.59;100957.75;5020037;28;20448;-49
2022/03/09 00:55:21;;;;;;;0.20;0.20;;;;;;;-2.31;79.88;100960.69;5026930;28;20456;-48
2022/03/09 00:57:47;;;;;;;2.47;2.30;;;;;;;-2.31;79.52;100955.47;5013218;28;20500;-49
2022/03/09 01:00:15;;;;;;;0.20;0.10;;;;;;;-2.37;79.43;100950.06;5026791;28;20542;-48
2022/03/09 01:02:43;;;;;;;0.77;0.77;;;;;;;-2.45;80.18;100965.41;5025621;28;20483;-49
2022/03/09 01:05:11;;;;;;;0.20;0.10;;;;;;;-2.69;79.57;100964.56;5012162;28;20458;-49
2022/03/09 01:07:41;;;;;;;0.20;0.10;;;;;;;-2.82;81.08;100958.03;5024908;28;20445;-49
2022/03/09 01:10:09;;;;;;;0.20;0.10;;;;;;;-2.70;81.80;100966.28;5016728;28;20486;-48
2022/03/09 01:12:36;;;;;;;0.20;0.10;;;;;;;-2.72;81.04;100967.94;5020582;28;20507;-49
2022/03/09 01:15:04;;;;;;;0.20;0.10;;;;;;;-2.82;81.49;100964.94;5025191;28;20905;-48
2022/03/09 01:17:31;;;;;;;1.43;1.43;;;;;;;-3.04;81.85;100966.75;5018544;28;20452;-49
2022/03/09 01:19:59;;;;;;;0.20;0.10;;;;;;;-2.95;81.95;100971.41;5016162;28;20990;-48
2022/03/09 01:22:26;;;;;;;0.20;0.20;;;;;;;-3.12;82.36;100963.00;5020711;28;20452;-49
2022/03/09 01:24:53;;;;;;;0.20;0.10;;;;;;;-3.15;82.26;100957.69;5025207;28;20503;-48
2022/03/09 01:27:19;;;;;;;0.20;0.10;;;;;;;-2.99;82.42;100959.16;5011355;28;20456;-49
2022/03/09 01:29:46;;;;;;;0.20;0.10;;;;;;;-3.10;81.67;100961.34;5027059;28;20892;-49
2022/03/09 01:32:13;;;;;;;0.20;0.10;;;;;;;-3.11;82.82;100954.38;5021577;28;20461;-48
2022/03/09 01:34:40;;;;;;;0.20;0.10;;;;;;;-2.89;82.71;100955.13;5013873;28;20445;-48
2022/03/09 01:37:06;;;;;;;0.20;0.10;;;;;;;-2.82;82.34;100959.75;5039021;28;20530;-49
2022/03/09 01:39:33;;;;;;;0.20;0.10;;;;;;;-2.72;81.56;100960.13;5016048;28;20457;-48
2022/03/09 01:41:59;;;;;;;0.30;0.30;;;;;;;-2.71;81.09;100955.81;5023610;28;20485;-48
2022/03/09 01:44:26;;;;;;;0.20;0.10;;;;;;;-2.86;80.79;100955.28;5014849;28;20457;-49
2022/03/09 01:46:54;;;;;;;0.20;0.10;;;;;;;-2.77;81.30;100953.88;5022133;28;20479;-48
2022/03/09 01:49:23;;;;;;;0.20;0.10;;;;;;;-2.81;81.49;100954.59;5015356;28;20485;-49
2022/03/09 01:51:58;;;;;;;0.20;0.10;;;;;;;-2.72;80.86;100961.84;5023691;28;20484;-48
2022/03/09 01:54:25;;;;;;;0.20;0.10;;;;;;;-2.95;81.97;100961.00;5024234;28;20452;-48
2022/03/09 01:56:55;;;;;;;0.27;0.13;;;;;;;-3.19;82.57;100966.19;5019237;28;20462;-48
2022/03/09 01:59:22;;;;;;;0.20;0.10;;;;;;;-3.19;82.55;100962.72;5017373;28;20510;-49
2022/03/09 02:01:48;;;;;;;1.40;0.73;;;;;;;-3.26;83.10;100960.72;5023469;28;20990;-48
2022/03/09 02:04:17;;;;;;;0.20;0.10;;;;;;;-3.28;82.82;100953.75;5010526;28;20963;-49
2022/03/09 02:06:44;;;;;;;0.20;0.10;;;;;;;-3.31;82.72;100960.53;5010703;28;21000;-49
2022/03/09 02:12:18;;;;;;;0.30;0.27;;;;;;;-3.59;83.98;100958.59;4980908;28;20462;-48
2022/03/09 02:14:50;;;;;;;0.20;0.10;;;;;;;-3.50;84.10;100953.75;4982758;28;20478;-48
2022/03/09 02:17:25;;;;;;;0.20;0.10;;;;;;;-3.53;83.51;100958.84;5003025;28;20445;-48
2022/03/09 02:19:52;;;;;;;0.20;0.10;;;;;;;-3.34;83.84;100948.31;5011651;28;20464;-48
2022/03/09 02:22:29;;;;;;;1.07;1.07;;;;;;;-3.22;83.22;100952.19;5011129;28;20516;-49
2022/03/09 02:24:55;;;;;;;0.20;0.10;;;;;;;-2.93;81.94;100953.28;5024681;28;20451;-49
2022/03/09 02:27:22;;;;;;;0.20;0.10;;;;;;;-3.17;81.75;100955.84;5020767;28;20453;-49
2022/03/09 02:29:50;;;;;;;0.20;0.10;;;;;;;-3.33;82.67;100959.59;5013697;28;20472;-48
2022/03/09 02:32:17;;;;;;;0.20;0.10;;;;;;;-3.42;82.65;100954.94;5023744;28;20483;-48
2022/03/09 02:34:44;;;;;;;0.20;0.10;;;;;;;-3.72;83.65;100952.03;5013238;28;20452;-49
2022/03/09 02:37:11;;;;;;;0.20;0.10;;;;;;;-3.70;84.73;100958.19;5034460;28;20475;-49
2022/03/09 02:39:38;;;;;;;0.20;0.20;;;;;;;-3.55;83.80;100957.91;5011998;28;20484;-49
2022/03/09 02:42:08;;;;;;;0.20;0.10;;;;;;;-3.48;83.51;100953.81;5024310;28;20484;-48
2022/03/09 02:44:35;;;;;;;0.20;0.10;;;;;;;-3.50;85.21;100948.56;5013433;28;20469;-48
2022/03/09 02:47:02;;;;;;;0.20;0.10;;;;;;;-3.42;84.17;100959.25;5009484;28;20456;-48
2022/03/09 02:49:29;;;;;;;0.20;0.10;;;;;;;-3.04;83.00;100965.88;5025221;28;20869;-49
2022/03/09 02:51:56;;;;;;;3.10;1.17;;;;;;;-3.05;82.95;100966.69;5011350;28;20934;-49
2022/03/09 02:54:22;;;;;;;1.17;1.17;;;;;;;-3.22;82.69;100960.88;5025893;28;20453;-49
2022/03/09 02:56:49;;;;;;;0.20;0.10;;;;;;;-3.58;84.02;100958.63;5018853;28;20445;-49
2022/03/09 02:59:16;;;;;;;4.67;1.80;;;;;;;-3.55;84.29;100949.22;5014954;28;20449;-49
2022/03/09 03:01:42;;;;;;;0.20;0.10;;;;;;;-3.52;85.04;100942.41;5023054;28;20488;-48
2022/03/09 03:04:09;;;;;;;0.20;0.10;;;;;;;-3.78;85.57;100943.13;5010317;28;20954;-48
2022/03/09 03:06:36;;;;;;;0.20;0.10;;;;;;;-3.81;86.34;100940.41;5008432;28;20828;-48
2022/03/09 03:09:02;;;;;;;0.20;0.10;;;;;;;-3.99;87.75;100940.53;5024057;28;20457;-48
2022/03/09 03:11:29;;;;;;;0.20;0.10;;;;;;;-3.79;87.01;100938.75;5018304;28;20504;-48
2022/03/09 03:13:55;;;;;;;0.20;0.10;;;;;;;-3.84;86.70;100930.75;5014950;28;20448;-48
2022/03/09 03:16:22;;;;;;;0.30;0.20;;;;;;;-3.68;86.27;100938.34;5022476;28;20480;-48
2022/03/09 03:18:49;;;;;;;0.20;0.10;;;;;;;-3.69;85.24;100935.69;5023227;28;20449;-49
2022/03/09 03:21:15;;;;;;;0.20;0.10;;;;;;;-3.67;84.76;100936.63;5009949;28;20500;-49
2022/03/09 03:23:42;;;;;;;0.20;0.10;;;;;;;-3.58;84.40;100931.78;5026656;28;20519;-48
2022/03/09 03:26:09;;;;;;;0.20;0.10;;;;;;;-3.78;84.34;100940.53;5020806;28;20449;-49
2022/03/09 03:28:35;;;;;;;0.20;0.10;;;;;;;-3.83;84.39;100942.06;5019286;28;20511;-49
2022/03/09 03:31:02;;;;;;;0.20;0.10;;;;;;;-3.60;84.24;100946.41;5024388;28;20468;-49
2022/03/09 03:33:29;;;;;;;0.20;0.10;;;;;;;-3.55;84.11;100954.41;5014488;28;20449;-49
2022/03/09 03:35:56;;;;;;;0.20;0.10;;;;;;;-3.47;84.53;100942.59;5035877;28;20443;-48
2022/03/09 03:38:23;;;;;;;0.20;0.10;;;;;;;-3.48;83.65;100935.63;5032566;28;20453;-49
2022/03/09 03:40:52;;;;;;;0.20;0.10;;;;;;;-3.61;83.38;100939.47;5014574;28;20526;-48
2022/03/09 03:43:18;;;;;;;0.40;0.40;;;;;;;-3.47;83.78;100943.47;5026171;28;20452;-49
2022/03/09 03:45:45;;;;;;;0.20;0.10;;;;;;;-3.55;83.96;100939.72;5015413;28;20449;-48
2022/03/09 03:48:12;;;;;;;0.20;0.20;;;;;;;-3.92;83.77;100940.84;5024785;28;20449;-48
2022/03/09 03:50:38;;;;;;;0.37;0.37;;;;;;;-3.91;84.99;100940.03;5014031;28;20530;-48
2022/03/09 03:53:05;;;;;;;0.20;0.10;;;;;;;-4.12;84.63;100943.47;5025628;28;20455;-48
2022/03/09 03:55:32;;;;;;;0.20;0.10;;;;;;;-4.03;85.00;100949.03;5017011;28;20449;-48
2022/03/09 03:57:58;;;;;;;0.20;0.10;;;;;;;-3.87;84.69;100949.69;5020797;28;20453;-48
2022/03/09 04:00:25;;;;;;;0.20;0.20;;;;;;;-3.79;84.18;100944.84;5026266;28;20472;-48
2022/03/09 04:02:51;;;;;;;0.20;0.10;;;;;;;-3.99;84.25;100953.53;5012044;28;20547;-48
2022/03/09 04:05:19;;;;;;;0.20;0.10;;;;;;;-4.15;84.90;100954.59;5025212;28;20455;-49
2022/03/09 04:07:46;;;;;;;0.20;0.10;;;;;;;-4.42;85.03;100953.47;5024006;28;20476;-48
2022/03/09 04:10:13;;;;;;;0.20;0.10;;;;;;;-4.35;85.24;100951.19;5015215;28;20527;-51
2022/03/09 04:12:40;;;;;;;0.20;0.10;;;;;;;-4.28;85.37;100949.72;5025707;28;20444;-52
2022/03/09 04:15:07;;;;;;;0.20;0.10;;;;;;;-4.45;84.90;100941.25;5016848;28;20457;-49
2022/03/09 04:17:47;;;;;;;0.40;0.40;;;;;;;-4.38;86.00;100943.31;5021267;28;20506;-51
2022/03/09 04:20:15;;;;;;;0.20;0.10;;;;;;;-4.38;85.04;100952.78;5014457;28;20516;-52
2022/03/09 04:22:42;;;;;;;0.20;0.10;;;;;;;-4.57;86.09;100961.47;5023601;28;21083;-50
2022/03/09 04:25:10;;;;;;;0.20;0.10;;;;;;;-4.61;85.84;100962.19;5026406;28;20457;-51
2022/03/09 04:27:37;;;;;;;0.20;0.20;;;;;;;-4.41;85.71;100955.22;5013019;28;20453;-50
2022/03/09 04:30:07;;;;;;;0.20;0.10;;;;;;;-4.24;85.07;100956.84;5024942;28;20476;-49
2022/03/09 04:32:34;;;;;;;0.20;0.10;;;;;;;-4.67;85.17;100956.72;5024394;28;20508;-52
2022/03/09 04:35:02;;;;;;;0.20;0.10;;;;;;;-4.39;85.73;100951.00;5014070;28;20938;-50
2022/03/09 04:37:33;;;;;;;0.20;0.10;;;;;;;-4.47;84.92;100955.88;5012222;28;20543;-51
2022/03/09 04:40:02;;;;;;;0.20;0.10;;;;;;;-4.47;85.40;100954.16;5011401;28;20513;-51
2022/03/09 04:42:30;;;;;;;0.20;0.10;;;;;;;-4.60;85.78;100961.34;5025324;28;20492;-50
2022/03/09 04:44:56;;;;;;;0.20;0.10;;;;;;;-4.42;85.20;100962.13;5024269;28;20452;-50
2022/03/09 04:47:23;;;;;;;0.20;0.10;;;;;;;-4.18;84.85;100964.88;5015397;28;20449;-50
2022/03/09 04:49:51;;;;;;;0.40;0.37;;;;;;;-3.72;84.45;100959.81;5026038;28;20464;-51
2022/03/09 04:52:18;;;;;;;0.20;0.10;;;;;;;-3.58;84.33;100970.75;5007752;28;20446;-50
2022/03/09 04:54:45;;;;;;;0.20;0.20;;;;;;;-3.89;83.76;100976.44;5023388;28;20448;-50
2022/03/09 04:57:14;;;;;;;0.20;0.10;;;;;;;-3.81;84.05;100967.25;5026858;28;20453;-51
2022/03/09 04:59:41;;;;;;;0.20;0.10;;;;;;;-4.06;84.67;100977.47;5011737;28;20457;-50
2022/03/09 05:02:07;;;;;;;0.20;0.10;;;;;;;-4.37;85.78;100983.09;5025028;28;20855;-51
2022/03/09 05:04:34;;;;;;;0.20;0.10;;;;;;;-4.49;85.67;100973.09;5023195;28;20476;-51
2022/03/09 05:07:01;;;;;;;0.20;0.10;;;;;;;-4.62;86.20;100970.78;5014840;28;20481;-51
2022/03/09 05:09:31;;;;;;;0.20;0.10;;;;;;;-4.66;87.14;100974.03;5024643;28;20456;-51
2022/03/09 05:11:58;;;;;;;0.20;0.10;;;;;;;-4.39;85.39;100985.59;5014885;28;20457;-50
2022/03/09 05:14:24;;;;;;;0.20;0.10;;;;;;;-4.79;86.40;100976.13;5023774;28;20448;-51
2022/03/09 05:16:51;;;;;;;2.97;2.77;;;;;;;-4.68;86.38;100980.88;5024075;28;20444;-50
2022/03/09 05:19:18;;;;;;;0.20;0.10;;;;;;;-4.50;86.30;100979.97;5023604;28;20449;-50
2022/03/09 05:21:44;;;;;;;0.20;0.10;;;;;;;-4.86;86.66;100981.84;5017021;28;20934;-51
2022/03/09 05:24:31;;;;;;;0.20;0.10;;;;;;;-4.77;86.93;100976.19;5025752;28;20865;-51
2022/03/09 05:26:57;;;;;;;0.20;0.10;;;;;;;-4.76;87.34;100972.78;5010602;28;20457;-49
2022/03/09 05:29:24;;;;;;;0.20;0.10;;;;;;;-5.05;87.08;100981.84;5024256;28;20456;-50
2022/03/09 05:31:51;;;;;;;0.20;0.10;;;;;;;-4.57;84.82;100983.13;5021860;28;20468;-50
2022/03/09 05:34:17;;;;;;;0.20;0.10;;;;;;;-4.91;86.67;100978.19;5009948;28;20449;-51
2022/03/09 05:36:44;;;;;;;0.20;0.10;;;;;;;-4.82;86.62;100964.72;5036148;28;21018;-50
2022/03/09 05:39:10;;;;;;;0.20;0.10;;;;;;;-4.88;87.04;100972.25;5017085;28;20449;-51
2022/03/09 05:41:40;;;;;;;0.20;0.10;;;;;;;-5.19;87.02;100975.16;5018217;28;20579;-51
2022/03/09 05:44:07;;;;;;;0.20;0.10;;;;;;;-5.14;87.82;100977.13;5023716;28;20453;-50
2022/03/09 05:46:34;;;;;;;0.20;0.10;;;;;;;-4.96;88.36;100978.78;5011082;28;20453;-50
2022/03/09 05:49:02;;;;;;;0.20;0.10;;;;;;;-4.80;87.45;100983.81;5021231;28;20452;-51
2022/03/09 05:51:29;;;;;;;0.20;0.10;;;;;;;-4.79;86.96;100990.81;5005151;28;20469;-52
2022/03/09 05:53:55;;;;;;;7.00;4.10;;;;;;;-4.76;86.37;100993.53;5020436;28;20448;-52
2022/03/09 05:56:22;;;;;;;0.20;0.10;;;;;;;-4.96;85.65;100999.50;5018527;28;20445;-51
2022/03/09 05:58:48;;;;;;;0.20;0.10;;;;;;;-5.16;87.41;101002.09;5008495;28;20448;-50
2022/03/09 06:01:15;;;;;;;0.20;0.10;;;;;;;-5.21;87.96;101002.69;5019851;28;20909;-50
2022/03/09 06:03:42;;;;;;;0.20;0.10;;;;;;;-4.99;88.16;101007.16;5010682;28;20457;-51
2022/03/09 06:06:09;;;;;;;0.20;0.10;;;;;;;-4.93;88.24;101010.03;5013191;28;20480;-50
2022/03/09 06:08:35;;;;;;;0.20;0.10;;;;;;;-4.85;88.01;101006.06;5015991;28;20820;-50
2022/03/09 06:11:06;;;;;;;0.20;0.10;;;;;;;-4.82;87.34;101021.75;5012658;28;20514;-50
2022/03/09 06:13:33;;;;;;;0.20;0.10;;;;;;;-4.85;87.88;101021.63;5005921;28;21019;-50
2022/03/09 06:15:59;;;;;;;0.20;0.10;;;;;;;-4.91;87.56;101030.03;5016504;28;20953;-51
2022/03/09 06:18:27;;;;;;;0.20;0.10;;;;;;;-4.92;89.11;101035.13;5016877;28;20460;-51
2022/03/09 06:20:53;;;;;;;0.20;0.10;;;;;;;-4.80;88.06;101033.06;5003050;28;20468;-50
2022/03/09 06:23:20;;;;;;;0.20;0.10;;;;;;;-4.86;89.79;101038.00;5015659;28;20564;-50
2022/03/09 06:25:46;;;;;;;0.20;0.10;;;;;;;-4.89;91.04;101043.03;5011362;28;20461;-51
2022/03/09 06:28:14;;;;;;;0.30;0.20;;;;;;;-4.53;89.06;101043.78;5005707;28;20455;-51
2022/03/09 06:30:41;;;;;;;0.20;0.10;;;;;;;-4.51;89.04;101042.16;5014584;28;20480;-51
2022/03/09 06:33:08;;;;;;;0.20;0.10;;;;;;;-4.52;89.18;101051.66;5004842;28;20450;-51
2022/03/09 06:35:34;;;;;;;0.20;0.10;;;;;;;-4.42;89.87;101052.94;5016232;28;20443;-50
2022/03/09 06:38:01;;;;;;;0.30;0.30;;;;;;;-4.22;89.73;101048.63;5022954;28;20476;-50
2022/03/09 06:40:28;;;;;;;0.20;0.10;;;;;;;-4.11;88.61;101049.06;5000739;28;20479;-51
2022/03/09 06:42:59;;;;;;;0.20;0.10;;;;;;;-3.90;87.80;101052.56;5014361;28;20492;-50
2022/03/09 06:45:27;;;;;;;0.20;0.20;;;;;;;-3.89;87.68;101052.63;5001269;28;20475;-50
2022/03/09 06:47:54;;;;;;;0.20;0.10;;;;;;;-3.70;86.64;101054.28;5013776;28;20459;-50
2022/03/09 06:50:21;;;;;;;0.20;0.10;;;;;;;-3.67;86.87;101061.31;5006993;28;20473;-50
2022/03/09 06:52:48;;;;;;;0.20;0.10;;;;;;;-3.60;86.28;101060.72;5005448;28;20996;-50
2022/03/09 06:55:14;;;;;;;0.20;0.13;;;;;;;-3.42;86.22;101082.28;5014600;28;20518;-50
2022/03/09 06:57:41;;;;;;;0.20;0.20;;;;;;;-3.40;85.85;101070.22;5000215;28;20951;-50
2022/03/09 07:00:11;;;;;;;0.20;0.10;;;;;;;-3.29;85.58;101071.53;5015087;28;20518;-50
2022/03/09 07:02:39;;;;;;;0.20;0.10;;;;;;;-3.33;86.83;101077.41;5016619;28;20546;-50
2022/03/09 07:05:06;;;;;;;0.20;0.10;;;;;;;-3.16;85.62;101077.19;5004410;28;20540;-51
2022/03/09 07:07:35;;;;;;;0.20;0.10;;;;;;;-2.97;85.93;101081.41;5003650;28;20449;-51
2022/03/09 07:10:02;;;;;;;0.20;0.10;;;;;;;-2.96;85.29;101089.28;5016398;28;20492;-50
2022/03/09 07:12:29;;;;;;;0.20;0.10;;;;;;;-2.80;85.25;101086.41;5015688;28;20444;-51
2022/03/09 07:14:56;;;;;;;0.20;0.10;;;;;;;-2.72;84.90;101097.13;5004454;28;20503;-50
2022/03/09 07:17:22;;;;;;;0.20;0.10;;;;;;;-2.66;84.61;101099.06;5016343;28;20507;-50
2022/03/09 07:19:53;;;;;;;0.20;0.10;;;;;;;-2.58;84.81;101092.44;5008212;28;20527;-51
2022/03/09 07:22:20;;;;;;;1.40;1.40;;;;;;;-2.42;84.50;101098.25;5012266;28;20496;-52
2022/03/09 07:24:46;;;;;;;0.20;0.10;;;;;;;-2.31;84.34;101097.78;5016584;28;20507;-51
2022/03/09 07:27:13;;;;;;;0.20;0.10;;;;;;;-2.22;84.72;101103.28;5003365;28;20449;-50
2022/03/09 07:29:40;;;;;;;0.20;0.10;;;;;;;-2.11;84.66;101099.34;5015091;28;20452;-50
2022/03/09 07:32:08;;;;;;;0.20;0.10;;;;;;;-1.86;84.14;101103.72;5013845;28;20499;-51
2022/03/09 07:34:35;;;;;;;0.20;0.10;;;;;;;-1.83;83.39;101106.41;5006347;28;20460;-51
2022/03/09 07:37:02;;;;;;;0.20;0.10;;;;;;;-1.75;83.00;101096.28;5029559;28;20455;-50
2022/03/09 07:39:29;;;;;;;0.20;0.10;;;;;;;-1.77;82.62;101101.44;5006798;28;20485;-51
2022/03/09 07:41:59;;;;;;;0.20;0.10;;;;;;;-1.52;82.04;101098.78;5013161;28;20564;-50
2022/03/09 07:44:25;;;;;;;0.20;0.10;;;;;;;-1.64;81.62;101102.75;5006024;28;20460;-50
2022/03/09 07:46:52;;;;;;;0.30;0.20;;;;;;;-1.57;81.59;101099.47;5013418;28;21011;-50
2022/03/09 07:49:19;;;;;;;0.33;0.33;;;;;;;-1.26;80.82;101106.56;5016117;28;20456;-50
2022/03/09 07:51:48;;;;;;;0.20;0.10;;;;;;;-1.25;80.69;101101.41;5002750;28;20472;-51
2022/03/09 07:54:16;;;;;;;0.20;0.10;;;;;;;-1.09;80.00;101100.19;5015796;28;20510;-51
2022/03/09 07:56:43;;;;;;;0.20;0.10;;;;;;;-0.97;80.36;101103.16;5011190;28;20958;-51
2022/03/09 07:59:11;;;;;;;0.20;0.10;;;;;;;-0.98;80.90;101109.22;5007070;28;20456;-51
2022/03/09 08:01:40;;;;;;;1.10;1.03;;;;;;;-0.77;79.93;101098.56;5015097;28;20904;-50
2022/03/09 08:04:07;;;;;;;0.20;0.10;;;;;;;-0.73;79.21;101095.19;5003284;28;20454;-51
2022/03/09 08:06:37;;;;;;;0.20;0.10;;;;;;;-0.57;79.62;101090.44;5014718;28;20481;-51
2022/03/09 08:09:07;;;;;;;0.30;0.27;;;;;;;-0.39;78.86;101096.19;5015434;28;21259;-49
2022/03/09 08:11:33;;;;;;;0.20;0.10;;;;;;;-0.15;77.92;101098.59;5001715;28;20579;-51
2022/03/09 08:14:00;;;;;;;0.20;0.10;;;;;;;-0.07;77.96;101091.88;5002573;28;20508;-51
2022/03/09 08:16:27;;;;;;;0.20;0.10;;;;;;;0.08;77.63;101089.66;5015403;28;20545;-50
2022/03/09 08:18:53;;;;;;;0.20;0.10;;;;;;;0.36;76.10;101095.59;5014457;28;20453;-51
2022/03/09 08:21:32;;;;;;;0.20;0.10;;;;;;;0.44;75.51;101101.94;5004430;28;20891;-51
2022/03/09 08:23:59;;;;;;;0.30;0.30;;;;;;;0.33;75.86;101098.16;5015088;28;21040;-51
2022/03/09 08:26:26;;;;;;;0.20;0.10;;;;;;;0.56;74.55;101100.50;5006583;28;20454;-51
2022/03/09 08:28:52;;;;;;;0.97;0.97;;;;;;;0.82;73.91;101100.22;5011416;28;20997;-51
2022/03/09 08:31:19;;;;;;;0.20;0.10;;;;;;;0.89;73.84;101095.19;5006145;28;20528;-50
2022/03/09 08:33:47;;;;;;;0.93;0.77;;;;;;;1.08;73.17;101093.00;5008776;28;20545;-50
2022/03/09 08:36:13;;;;;;;0.20;0.20;;;;;;;1.26;71.87;101103.00;5007209;28;20449;-50
2022/03/09 08:38:41;;;;;;;0.20;0.10;;;;;;;1.44;70.87;101101.66;5013307;28;20449;-52
2022/03/09 08:41:08;;;;;;;0.30;0.20;;;;;;;1.51;70.40;101109.66;5006334;28;20510;-51
2022/03/09 08:43:35;;;;;;;0.20;0.10;;;;;;;1.87;69.70;101107.78;5012172;28;20548;-51
2022/03/09 08:46:01;;;;;;;0.20;0.10;;;;;;;1.97;69.56;101104.50;5006821;28;20526;-51
2022/03/09 08:48:29;;;;;;;0.20;0.10;;;;;;;2.13;68.85;101099.53;5011906;28;20457;-50
2022/03/09 08:50:56;;;;;;;0.20;0.20;;;;;;;2.24;68.25;101101.50;5006966;28;20518;-51
2022/03/09 08:53:22;;;;;;;0.20;0.10;;;;;;;2.33;69.22;101100.78;5002510;28;20935;-52
2022/03/09 08:55:49;;;;;;;0.20;0.10;;;;;;;2.55;68.53;101113.44;5015677;28;20511;-52
2022/03/09 08:58:16;;;;;;;0.20;0.10;;;;;;;2.75;67.65;101108.53;5011672;28;20955;-51
2022/03/09 09:00:42;;;;;;;0.20;0.13;;;;;;;2.83;66.80;101104.25;5006316;28;20535;-52
2022/03/09 09:03:09;;;;;;;0.20;0.10;;;;;;;3.37;65.93;101099.81;5015034;28;20495;-52
2022/03/09 09:05:36;;;;;;;0.20;0.10;;;;;;;3.23;66.47;101108.38;5004176;28;20485;-51
2022/03/09 09:08:03;;;;;;;0.20;0.20;;;;;;;3.00;66.94;101103.63;5012618;28;20448;-51
2022/03/09 09:10:33;;;;;;;0.20;0.10;;;;;;;3.27;66.64;101104.03;5014964;28;20563;-51
2022/03/09 09:13:00;;;;;;;0.30;0.20;;;;;;;3.33;66.95;101100.63;5000795;28;20456;-52
2022/03/09 09:15:28;;;;;;;0.20;0.10;;;;;;;3.52;66.45;101085.13;5014187;28;20448;-51
2022/03/09 09:17:59;;;;;;;0.20;0.10;;;;;;;3.58;65.65;101081.72;5013836;28;20470;-52
2022/03/09 09:20:46;;;;;;;0.30;0.30;;;;;;;3.79;64.93;101089.84;5000908;28;20837;-51
2022/03/09 09:23:12;;;;;;;0.20;0.20;;;;;;;4.14;64.11;101086.72;5013727;28;20514;-51
2022/03/09 09:25:42;;;;;;;0.30;0.20;;;;;;;4.32;63.82;101080.75;5010423;28;20453;-52
2022/03/09 09:28:09;;;;;;;0.47;0.47;;;;;;;4.37;63.17;101089.56;5003767;28;20448;-52
2022/03/09 09:30:35;;;;;;;1.07;1.07;;;;;;;4.73;62.84;101081.13;5013841;28;20520;-52
2022/03/09 09:33:02;;;;;;;0.20;0.10;;;;;;;4.69;61.33;101077.59;5003940;28;20512;-51
2022/03/09 09:35:29;;;;;;;0.20;0.10;;;;;;;4.53;62.16;101082.72;5013918;28;20478;-51
2022/03/09 09:38:06;;;;;;;0.20;0.10;;;;;;;4.97;60.85;101080.44;5021074;28;20982;-52
2022/03/09 09:40:43;;;;;;;0.20;0.10;;;;;;;5.04;59.76;101083.09;5000362;28;20468;-52
2022/03/09 09:43:14;;;;;;;0.20;0.10;;;;;;;5.33;59.46;101090.28;5012824;28;20499;-51
2022/03/09 09:45:42;;;;;;;0.20;0.20;;;;;;;5.29;59.25;101092.03;5001272;28;20453;-53
2022/03/09 09:48:10;;;;;;;8.33;1.50;;;;;;;5.57;59.11;101087.78;5012924;28;20449;-53
2022/03/09 09:50:39;;;;;;;0.20;0.20;;;;;;;5.73;58.56;101090.50;5005076;28;20527;-53
2022/03/09 09:53:07;;;;;;;7.10;2.30;;;;;;;5.33;58.17;101082.38;5008420;28;20511;-53
2022/03/09 09:55:34;;;;;;;0.57;0.57;;;;;;;5.92;57.48;101076.53;5011827;28;20464;-53
2022/03/09 09:58:01;;;;;;;0.20;0.10;;;;;;;6.02;56.82;101075.66;4999661;28;20500;-53
2022/03/09 10:00:29;;;;;;;0.83;0.83;;;;;;;5.92;55.89;101072.16;5013129;28;20468;-53
2022/03/09 10:03:01;;;;;;;0.20;0.10;;;;;;;6.26;55.98;101066.06;5009687;28;20492;-53
2022/03/09 10:05:28;;;;;;;4.77;0.83;;;;;;;6.15;54.31;101058.09;5003581;28;20531;-52
2022/03/09 10:08:04;;;;;;;0.30;0.20;;;;;;;6.27;54.61;101059.88;5012748;28;20567;-53
2022/03/09 10:10:32;;;;;;;0.30;0.10;;;;;;;6.45;54.17;101057.28;5001414;28;20497;-52
2022/03/09 10:13:15;;;;;;;0.30;0.20;;;;;;;6.82;53.67;101064.31;5011390;28;20455;-53
2022/03/09 10:15:44;;;;;;;0.30;0.10;;;;;;;6.87;52.79;101063.44;5011776;28;20456;-53
2022/03/09 10:18:13;;;;;;;0.60;0.60;;;;;;;6.98;51.31;101056.34;5007954;28;20491;-53
2022/03/09 10:20:39;;;;;;;2.17;2.17;;;;;;;7.25;50.99;101052.78;5000060;28;20470;-53
2022/03/09 10:23:08;;;;;;;0.30;0.10;;;;;;;7.08;51.06;101066.91;5012863;28;20496;-52
2022/03/09 10:25:35;;;;;;;2.10;1.90;;;;;;;6.81;50.63;101064.31;5010498;28;20453;-53
2022/03/09 10:28:09;;;;;;;0.30;0.10;;;;;;;7.10;51.06;101064.25;5002701;28;20449;-53
2022/03/09 10:30:41;;;;;;;0.30;0.20;;;;;;;7.27;50.44;101064.25;5012202;28;20974;-52
2022/03/09 10:33:10;;;;;;;1.83;0.83;;;;;;;7.49;50.16;101057.13;5001698;28;20499;-53
2022/03/09 10:35:44;;;;;;;1.57;0.53;;;;;;;7.42;50.09;101053.63;5014878;28;20444;-53
2022/03/09 10:38:16;;;;;;;0.20;0.20;;;;;;;7.56;49.78;101057.09;5020328;28;20540;-53
2022/03/09 10:40:46;;;;;;;0.30;0.20;;;;;;;7.82;49.51;101045.53;5012318;28;20476;-52
2022/03/09 10:43:14;;;;;;;0.30;0.20;;;;;;;7.57;50.13;101045.63;5012006;28;20520;-52
2022/03/09 10:46:01;;;;;;;0.30;0.20;;;;;;;7.86;49.89;101042.84;5000101;28;20453;-53
2022/03/09 10:48:49;;;;;;;0.30;0.20;;;;;;;7.65;48.83;101032.34;5009124;28;20508;-53
2022/03/09 10:51:39;;;;;;;0.40;0.40;;;;;;;7.74;48.53;101029.66;5005169;28;20469;-53
2022/03/09 10:54:21;;;;;;;0.30;0.20;;;;;;;8.09;49.46;101031.25;5002196;28;20467;-53
2022/03/09 10:56:48;;;;;;;0.30;0.30;;;;;;;8.35;48.67;101028.41;4999249;28;20506;-53
2022/03/09 10:59:18;;;;;;;0.97;0.97;;;;;;;8.13;48.38;101028.56;5012388;28;20448;-53
2022/03/09 11:02:03;;;;;;;0.30;0.20;;;;;;;8.24;47.88;101029.38;5007192;28;20982;-51
2022/03/09 11:04:30;;;;;;;15.80;2.30;;;;;;;8.08;46.88;101027.69;5007210;28;20499;-51
2022/03/09 11:06:57;;;;;;;0.30;0.20;;;;;;;7.99;46.79;101022.47;5012323;28;20456;-52
2022/03/09 11:09:24;;;;;;;0.50;0.50;;;;;;;8.47;47.44;101018.59;4999205;28;20453;-53
2022/03/09 11:11:51;;;;;;;0.53;0.53;;;;;;;8.30;46.80;101024.00;5011881;28;20476;-53
2022/03/09 11:14:19;;;;;;;0.70;0.70;;;;;;;8.07;47.32;101022.41;5010301;28;20441;-53
2022/03/09 11:16:48;;;;;;;0.43;0.43;;;;;;;8.14;46.89;101021.50;5001034;28;20456;-52
2022/03/09 11:19:18;;;;;;;0.30;0.20;;;;;;;8.51;47.26;101025.66;5009204;28;20444;-50
2022/03/09 11:21:45;;;;;;;0.30;0.20;;;;;;;8.81;46.98;101029.81;5001919;28;20472;-51
2022/03/09 11:24:14;;;;;;;0.40;0.40;;;;;;;8.93;47.30;101026.16;5011984;28;20488;-50
2022/03/09 11:26:54;;;;;;;0.30;0.20;;;;;;;9.10;45.79;101012.72;5002074;28;20500;-50
2022/03/09 11:29:33;;;;;;;0.47;0.47;;;;;;;9.30;45.49;101015.13;5010593;28;20476;-50
2022/03/09 11:32:03;;;;;;;2.93;2.73;;;;;;;9.02;44.80;101014.56;5011561;28;20542;-51
2022/03/09 11:34:33;;;;;;;0.30;0.20;;;;;;;9.15;45.62;101010.88;4999744;28;21071;-51